createdAt,value
2018-12-08T00:01:18.995Z,1.20
2018-12-08T00:03:58.918Z,1.00
2018-12-08T00:06:39.252Z,1.03
2018-12-08T00:09:12.402Z,1.30
2018-12-08T00:11:46.614Z,1.23
2018-12-08T00:14:26.490Z,1.30
2018-12-08T00:17:04.526Z,1.20
2018-12-08T00:19:38.524Z,1.03
2018-12-08T00:22:12.606Z,1.43
2018-12-08T00:24:52.052Z,1.07
2018-12-08T00:27:30.175Z,1.33
2018-12-08T00:30:13.845Z,1.40
2018-12-08T00:32:45.808Z,1.43
2018-12-08T00:35:19.054Z,1.10
2018-12-08T00:37:58.597Z,1.20
2018-12-08T00:40:32.651Z,1.17
2018-12-08T00:43:10.101Z,1.30
2018-12-08T00:45:43.541Z,1.30
2018-12-08T00:48:23.129Z,1.50
2018-12-08T00:50:56.764Z,1.30
2018-12-08T00:53:30.487Z,1.27
2018-12-08T00:56:06.228Z,1.30
2018-12-08T00:58:40.264Z,1.33
2018-12-08T01:01:13.498Z,1.30
2018-12-08T01:03:46.750Z,1.13
2018-12-08T01:06:20.303Z,1.47
2018-12-08T01:08:53.510Z,1.40
2018-12-08T01:11:29.401Z,1.60
2018-12-08T01:14:09.250Z,1.40
2018-12-08T01:16:47.296Z,1.33
2018-12-08T01:19:21.458Z,1.40
2018-12-08T01:21:57.205Z,1.30
2018-12-08T01:24:32.720Z,1.60
2018-12-08T01:27:05.810Z,1.53
2018-12-08T01:29:39.355Z,1.43
2018-12-08T01:32:18.767Z,1.30
2018-12-08T01:34:56.842Z,1.40
2018-12-08T01:37:33.077Z,1.10
2018-12-08T01:40:06.466Z,1.43
2018-12-08T01:42:43.917Z,1.47
2018-12-08T01:45:22.177Z,1.30
2018-12-08T01:48:01.600Z,1.20
2018-12-08T01:50:35.269Z,1.07
2018-12-08T01:53:10.801Z,1.07
2018-12-08T01:55:50.117Z,1.40
2018-12-08T01:58:21.893Z,1.13
2018-12-08T02:01:01.633Z,1.33
2018-12-08T02:03:39.894Z,1.37
2018-12-08T02:06:13.601Z,1.10
2018-12-08T02:08:46.984Z,1.30
2018-12-08T02:11:25.292Z,1.10
2018-12-08T02:14:05.916Z,1.50
2018-12-08T02:16:36.916Z,1.33
2018-12-08T02:19:10.260Z,1.40
2018-12-08T02:21:44.078Z,1.60
2018-12-08T02:24:19.597Z,1.50
2018-12-08T02:39:29.993Z,1.30
2018-12-08T02:42:03.322Z,1.40
2018-12-08T02:44:36.562Z,1.83
2018-12-08T02:47:11.922Z,1.40
2018-12-08T02:49:45.900Z,1.37
2018-12-08T02:52:19.257Z,1.47
2018-12-08T02:54:52.555Z,1.57
2018-12-08T02:57:26.450Z,1.10
2018-12-08T02:59:57.525Z,1.47
2018-12-08T03:02:30.609Z,1.47
2018-12-08T03:05:04.478Z,1.70
2018-12-08T03:07:38.117Z,1.27
2018-12-08T03:10:09.565Z,1.20
2018-12-08T03:12:43.341Z,1.27
2018-12-08T03:15:17.359Z,1.30
2018-12-08T03:17:52.871Z,1.40
2018-12-08T03:20:32.815Z,1.40
2018-12-08T03:23:10.792Z,1.50
2018-12-08T03:25:48.953Z,1.50
2018-12-08T03:28:27.038Z,1.40
2018-12-08T03:30:58.845Z,1.67
2018-12-08T03:33:32.594Z,1.30
2018-12-08T03:36:07.996Z,1.80
2018-12-08T03:38:41.666Z,1.50
2018-12-08T03:41:17.086Z,1.60
2018-12-08T03:51:31.710Z,1.40
2018-12-08T03:56:38.173Z,1.40
2018-12-08T03:59:12.300Z,1.83
2018-12-08T04:01:45.509Z,1.63
2018-12-08T04:04:16.785Z,1.37
2018-12-08T04:06:50.020Z,2.10
2018-12-08T04:09:23.048Z,1.87
2018-12-08T04:11:56.611Z,1.73
2018-12-08T04:14:28.564Z,1.50
2018-12-08T04:17:01.637Z,1.60
2018-12-08T04:19:35.022Z,1.27
2018-12-08T04:22:10.394Z,1.73
2018-12-08T04:24:50.594Z,1.27
2018-12-08T04:27:24.149Z,1.60
2018-12-08T04:29:59.742Z,1.70
2018-12-08T04:32:33.473Z,1.37
2018-12-08T04:35:06.986Z,1.40
2018-12-08T04:37:40.714Z,1.67
2018-12-08T04:40:14.176Z,1.50
2018-12-08T04:42:47.488Z,1.60
2018-12-08T04:45:22.916Z,1.70
2018-12-08T04:47:56.654Z,1.30
2018-12-08T04:50:29.894Z,1.57
2018-12-08T04:53:02.917Z,1.43
2018-12-08T04:55:36.113Z,1.60
2018-12-08T05:00:39.184Z,1.60
2018-12-08T05:03:14.741Z,1.40
2018-12-08T05:05:48.238Z,1.50
2018-12-08T05:08:21.206Z,1.57
2018-12-08T05:11:00.950Z,1.30
2018-12-08T05:13:35.014Z,1.40
2018-12-08T05:16:14.261Z,1.53
2018-12-08T05:18:48.144Z,1.70
2018-12-08T05:21:21.352Z,1.53
2018-12-08T05:23:55.448Z,1.30
2018-12-08T05:26:28.499Z,1.30
2018-12-08T05:29:01.655Z,1.60
2018-12-08T05:31:40.929Z,1.23
2018-12-08T05:34:14.379Z,1.30
2018-12-08T05:36:47.472Z,1.40
2018-12-08T05:39:20.885Z,1.47
2018-12-08T05:41:54.116Z,1.30
2018-12-08T05:44:27.497Z,1.60
2018-12-08T05:47:07.536Z,1.40
2018-12-08T05:49:40.772Z,1.47
2018-12-08T05:52:14.187Z,1.50
2018-12-08T05:54:47.382Z,1.33
2018-12-08T05:57:21.385Z,1.23
2018-12-08T05:59:56.736Z,1.40
2018-12-08T06:02:29.524Z,1.50
2018-12-08T06:05:02.994Z,1.33
2018-12-08T06:07:36.568Z,1.40
2018-12-08T06:10:10.889Z,1.40
2018-12-08T06:12:44.497Z,1.40
2018-12-08T06:15:17.684Z,1.60
2018-12-08T06:17:57.111Z,1.33
2018-12-08T06:20:30.781Z,1.60
2018-12-08T06:23:04.270Z,1.40
2018-12-08T06:25:38.842Z,1.40
2018-12-08T06:28:19.837Z,2.03
2018-12-08T06:30:52.937Z,1.30
2018-12-08T06:33:26.293Z,1.60
2018-12-08T06:36:02.689Z,1.37
2018-12-08T06:38:37.202Z,1.47
2018-12-08T06:41:14.897Z,1.27
2018-12-08T06:43:48.466Z,1.50
2018-12-08T06:46:24.080Z,1.47
2018-12-08T06:48:58.038Z,1.23
2018-12-08T06:51:37.480Z,1.30
2018-12-08T06:54:11.367Z,1.73
2018-12-08T06:56:42.523Z,1.20
2018-12-08T06:59:17.851Z,1.57
2018-12-08T07:01:53.826Z,1.53
2018-12-08T07:04:27.717Z,1.50
2018-12-08T07:07:00.694Z,1.20
2018-12-08T07:09:33.781Z,1.20
2018-12-08T07:12:13.450Z,1.50
2018-12-08T07:14:47.437Z,1.73
2018-12-08T07:17:21.192Z,1.20
2018-12-08T07:19:55.221Z,1.73
2018-12-08T07:22:30.588Z,1.40
2018-12-08T07:25:04.522Z,1.30
2018-12-08T07:27:42.518Z,1.50
2018-12-08T07:30:16.838Z,1.20
2018-12-08T07:32:50.773Z,1.00
2018-12-08T07:35:24.042Z,1.83
2018-12-08T07:37:57.115Z,1.50
2018-12-08T07:40:30.612Z,1.20
2018-12-08T07:43:04.067Z,1.57
2018-12-08T07:45:37.253Z,1.27
2018-12-08T07:48:11.213Z,1.50
2018-12-08T07:50:49.561Z,1.20
2018-12-08T07:53:26.006Z,1.37
2018-12-08T07:55:59.600Z,1.37
2018-12-08T07:58:37.130Z,1.30
2018-12-08T08:01:11.039Z,1.90
2018-12-08T08:03:44.358Z,1.87
2018-12-08T08:06:19.902Z,1.30
2018-12-08T08:08:54.661Z,1.37
2018-12-08T08:11:26.516Z,1.23
2018-12-08T08:13:57.671Z,1.30
2018-12-08T08:16:33.216Z,1.37
2018-12-08T08:19:07.041Z,1.47
2018-12-08T08:21:42.081Z,1.13
2018-12-08T08:24:15.303Z,1.30
2018-12-08T08:26:54.848Z,1.40
2018-12-08T08:29:26.894Z,1.40
2018-12-08T08:32:02.065Z,1.47
2018-12-08T08:34:41.577Z,1.63
2018-12-08T08:37:19.945Z,1.20
2018-12-08T08:39:53.918Z,1.60
2018-12-08T08:42:29.881Z,1.33
2018-12-08T08:45:09.818Z,1.60
2018-12-08T08:47:45.924Z,1.10
2018-12-08T08:50:19.045Z,1.57
2018-12-08T08:52:58.745Z,1.30
2018-12-08T08:55:36.973Z,1.30
2018-12-08T08:58:16.299Z,1.50
2018-12-08T09:00:52.182Z,1.37
2018-12-08T09:03:26.266Z,1.30
2018-12-08T09:05:57.576Z,1.40
2018-12-08T09:08:30.954Z,1.83
2018-12-08T09:11:11.641Z,1.20
2018-12-08T09:13:45.638Z,1.60
2018-12-08T09:16:25.506Z,1.40
2018-12-08T09:18:57.410Z,1.20
2018-12-08T09:21:30.677Z,1.40
2018-12-08T09:24:10.317Z,0.90
2018-12-08T09:26:50.537Z,1.30
2018-12-08T09:29:23.709Z,1.20
2018-12-08T09:32:03.561Z,1.40
2018-12-08T09:34:39.794Z,1.40
2018-12-08T09:37:20.140Z,1.27
2018-12-08T09:39:53.945Z,1.20
2018-12-08T09:42:33.534Z,1.43
2018-12-08T09:45:07.110Z,1.27
2018-12-08T09:47:38.748Z,1.23
2018-12-08T09:50:12.034Z,1.10
2018-12-08T09:52:57.228Z,1.13
2018-12-08T09:55:28.493Z,1.20
2018-12-08T09:58:08.525Z,1.30
2018-12-08T10:00:42.159Z,1.30
2018-12-08T10:03:15.645Z,1.30
2018-12-08T10:05:55.383Z,1.33
2018-12-08T10:08:29.224Z,1.40
2018-12-08T10:11:04.782Z,1.10
2018-12-08T10:13:40.969Z,1.37
2018-12-08T10:16:13.978Z,1.33
2018-12-08T10:18:49.832Z,1.27
2018-12-08T10:21:25.149Z,1.17
2018-12-08T10:23:56.933Z,1.20
2018-12-08T10:26:36.634Z,1.70
2018-12-08T10:29:08.622Z,1.20
2018-12-08T10:31:48.386Z,1.23
2018-12-08T10:34:27.882Z,1.50
2018-12-08T10:37:06.121Z,1.17
2018-12-08T10:39:40.205Z,1.40
2018-12-08T10:42:16.520Z,0.90
2018-12-08T10:44:49.587Z,1.20
2018-12-08T10:47:25.306Z,1.30
2018-12-08T10:50:00.577Z,1.23
2018-12-08T10:52:40.205Z,1.40
2018-12-08T10:55:15.509Z,1.20
2018-12-08T10:57:51.038Z,1.30
2018-12-08T11:00:29.366Z,0.97
2018-12-08T11:03:12.692Z,1.20
2018-12-08T11:05:52.573Z,1.53
2018-12-08T11:08:25.712Z,1.10
2018-12-08T11:11:05.161Z,0.90
2018-12-08T11:13:44.487Z,1.27
2018-12-08T11:16:19.830Z,1.00
2018-12-08T11:18:52.840Z,1.30
2018-12-08T11:21:32.592Z,1.20
2018-12-08T11:26:40.835Z,1.20
2018-12-08T11:34:17.248Z,1.20
2018-12-08T11:36:50.797Z,1.23
2018-12-08T11:39:24.794Z,1.20
2018-12-08T11:42:04.443Z,1.50
2018-12-08T11:44:44.084Z,1.10
2018-12-08T11:47:22.222Z,1.40
2018-12-08T11:49:56.293Z,1.50
2018-12-08T11:52:35.861Z,1.17
2018-12-08T11:55:15.823Z,1.37
2018-12-08T11:57:55.744Z,1.30
2018-12-08T12:00:28.986Z,1.20
2018-12-08T12:03:02.585Z,1.33
2018-12-08T12:05:33.789Z,1.20
2018-12-08T12:08:15.554Z,1.00
2018-12-08T12:10:49.361Z,1.17
2018-12-08T12:13:25.034Z,1.10
2018-12-08T12:16:03.136Z,1.10
2018-12-08T12:18:37.009Z,1.00
2018-12-08T12:21:16.975Z,1.30
2018-12-08T12:23:56.389Z,1.03
2018-12-08T12:26:29.393Z,1.10
2018-12-08T12:29:00.701Z,1.23
2018-12-08T12:31:32.540Z,1.30
2018-12-08T12:34:14.988Z,1.10
2018-12-08T12:36:53.045Z,1.10
2018-12-08T12:39:26.970Z,1.00
2018-12-08T12:42:06.587Z,1.30
2018-12-08T12:44:44.749Z,1.20
2018-12-08T12:47:22.989Z,1.00
2018-12-08T12:49:57.831Z,1.20
2018-12-08T12:52:37.724Z,1.10
2018-12-08T12:55:15.949Z,1.17
2018-12-08T12:57:47.709Z,1.10
2018-12-08T13:00:23.330Z,1.23
2018-12-08T13:03:01.573Z,1.00
2018-12-08T13:05:39.851Z,1.10
2018-12-08T13:08:10.988Z,1.03
2018-12-08T13:10:44.349Z,1.20
2018-12-08T13:13:24.467Z,1.00
2018-12-08T13:15:56.719Z,0.90
2018-12-08T13:18:30.043Z,0.90
2018-12-08T13:21:09.841Z,1.00
2018-12-08T13:23:48.083Z,1.00
2018-12-08T13:26:23.574Z,1.00
2018-12-08T13:28:57.033Z,0.90
2018-12-08T13:31:30.209Z,0.90
2018-12-08T13:34:37.600Z,1.03
2018-12-08T13:37:17.465Z,1.00
2018-12-08T13:50:02.352Z,0.93
2018-12-08T13:52:40.518Z,0.80
2018-12-08T13:55:13.820Z,0.80
2018-12-08T13:57:46.965Z,0.70
2018-12-08T14:00:20.333Z,1.40
2018-12-08T14:02:56.842Z,0.80
2018-12-08T14:05:30.919Z,0.90
2018-12-08T14:08:04.959Z,0.90
2018-12-08T14:10:40.277Z,1.00
2018-12-08T14:13:20.043Z,1.10
2018-12-08T14:15:58.348Z,1.00
2018-12-08T14:18:32.082Z,1.10
2018-12-08T14:21:05.927Z,1.00
2018-12-08T14:23:39.505Z,0.93
2018-12-08T14:26:12.806Z,1.00
2018-12-08T14:28:44.182Z,0.97
2018-12-08T14:31:21.798Z,0.73
2018-12-08T14:34:01.754Z,0.90
2018-12-08T14:36:35.919Z,0.90
2018-12-08T14:39:09.541Z,0.90
2018-12-08T14:41:48.988Z,0.80
2018-12-08T14:44:22.828Z,1.10
2018-12-08T14:46:55.962Z,1.10
2018-12-08T14:49:31.544Z,0.90
2018-12-08T14:52:08.741Z,0.90
2018-12-08T14:54:44.628Z,1.20
2018-12-08T14:57:22.857Z,1.00
2018-12-08T15:02:41.193Z,1.00
2018-12-08T15:05:12.442Z,1.00
2018-12-08T15:07:51.886Z,1.03
2018-12-08T15:10:25.691Z,0.87
2018-12-08T15:13:01.277Z,1.00
2018-12-08T15:15:39.449Z,1.00
2018-12-08T15:18:13.346Z,0.90
2018-12-08T15:20:54.997Z,1.40
2018-12-08T15:23:28.471Z,1.10
2018-12-08T15:26:06.486Z,1.13
2018-12-08T15:28:40.278Z,1.03
2018-12-08T15:31:13.502Z,1.00
2018-12-08T15:33:53.252Z,1.20
2018-12-08T15:36:30.752Z,1.10
2018-12-08T15:39:07.998Z,1.10
2018-12-08T15:41:42.058Z,1.10
2018-12-08T15:44:21.604Z,1.00
2018-12-08T15:46:59.578Z,1.10
2018-12-08T15:49:33.744Z,1.10
2018-12-08T15:52:05.674Z,1.20
2018-12-08T15:54:44.993Z,1.07
2018-12-08T15:57:18.625Z,1.10
2018-12-08T15:59:51.793Z,1.10
2018-12-08T16:02:25.070Z,1.10
2018-12-08T16:05:06.906Z,1.07
2018-12-08T16:07:40.671Z,1.10
2018-12-08T16:10:14.669Z,1.40
2018-12-08T16:12:54.085Z,1.20
2018-12-08T16:15:32.245Z,1.10
2018-12-08T16:18:05.918Z,1.10
2018-12-08T16:20:39.118Z,1.10
2018-12-08T16:23:18.478Z,1.30
2018-12-08T16:25:56.564Z,1.30
2018-12-08T16:28:27.669Z,1.37
2018-12-08T16:31:01.846Z,1.50
2018-12-08T16:33:37.901Z,1.33
2018-12-08T16:36:17.748Z,1.30
2018-12-08T16:38:51.632Z,1.47
2018-12-08T16:41:30.917Z,1.40
2018-12-08T16:44:10.994Z,1.77
2018-12-08T16:46:44.986Z,1.70
2018-12-08T16:49:16.916Z,1.70
2018-12-08T16:51:56.456Z,1.70
2018-12-08T16:54:35.822Z,1.70
2018-12-08T16:57:11.889Z,1.83
2018-12-08T16:59:45.519Z,1.53
2018-12-08T17:02:23.880Z,1.90
2018-12-08T17:05:04.290Z,1.80
2018-12-08T17:07:44.173Z,1.90
2018-12-08T17:10:18.180Z,1.70
2018-12-08T17:12:53.518Z,1.90
2018-12-08T17:15:33.395Z,1.90
2018-12-08T17:18:08.490Z,1.97
2018-12-08T17:20:43.435Z,2.03
2018-12-08T17:23:23.172Z,2.23
2018-12-08T17:26:01.389Z,2.10
2018-12-08T17:28:35.269Z,2.20
2018-12-08T17:31:09.166Z,2.30
2018-12-08T17:33:41.332Z,2.23
2018-12-08T17:36:14.470Z,2.30
2018-12-08T17:38:47.774Z,2.10
2018-12-08T17:41:21.870Z,2.47
2018-12-08T17:44:03.779Z,1.80
2018-12-08T17:46:44.554Z,2.00
2018-12-08T17:49:18.325Z,1.97
2018-12-08T17:51:58.081Z,2.20
2018-12-08T17:54:37.393Z,1.90
2018-12-08T17:57:15.232Z,1.70
2018-12-08T17:59:48.892Z,1.80
2018-12-08T18:02:22.324Z,1.60
2018-12-08T18:05:00.440Z,1.70
2018-12-08T18:07:38.517Z,1.50
2018-12-08T18:10:12.238Z,1.57
2018-12-08T18:12:51.541Z,1.70
2018-12-08T18:15:31.460Z,1.83
2018-12-08T18:18:03.394Z,1.50
2018-12-08T18:20:36.386Z,2.20
2018-12-08T18:23:15.536Z,1.90
2018-12-08T18:25:53.573Z,1.57
2018-12-08T18:28:27.423Z,1.60
2018-12-08T18:31:07.019Z,1.57
2018-12-08T18:33:40.556Z,1.50
2018-12-08T18:36:20.361Z,1.53
2018-12-08T18:38:57.320Z,1.73
2018-12-08T18:41:35.473Z,1.80
2018-12-08T18:44:11.577Z,1.60
2018-12-08T18:46:47.537Z,1.97
2018-12-08T18:49:21.316Z,1.53
2018-12-08T18:51:59.562Z,1.80
2018-12-08T18:54:32.606Z,2.00
2018-12-08T18:57:12.246Z,1.33
2018-12-08T18:59:45.795Z,1.70
2018-12-08T19:02:21.178Z,1.70
2018-12-08T19:05:00.736Z,1.47
2018-12-08T19:07:38.935Z,1.60
2018-12-08T19:20:21.093Z,1.83
2018-12-08T19:22:56.702Z,1.60
2018-12-08T19:25:32.765Z,1.60
2018-12-08T19:28:10.923Z,1.50
2018-12-08T19:30:49.193Z,1.57
2018-12-08T19:33:28.577Z,1.70
2018-12-08T19:36:06.778Z,1.80
2018-12-08T19:38:40.498Z,1.70
2018-12-08T19:41:16.001Z,1.53
2018-12-08T19:43:49.171Z,1.57
2018-12-08T19:46:22.678Z,1.70
2018-12-08T19:48:58.869Z,1.70
2018-12-08T19:51:32.830Z,1.60
2018-12-08T19:54:12.530Z,1.60
2018-12-08T19:56:50.631Z,1.73
2018-12-08T19:59:24.468Z,1.40
2018-12-08T20:02:04.338Z,1.50
2018-12-08T20:04:38.122Z,1.40
2018-12-08T20:07:17.917Z,1.70
2018-12-08T20:09:51.195Z,1.53
2018-12-08T20:12:25.105Z,1.60
2018-12-08T20:15:00.762Z,1.50
2018-12-08T20:17:39.039Z,1.40
2018-12-08T20:20:12.893Z,1.50
2018-12-08T20:22:46.186Z,1.30
2018-12-08T20:25:19.646Z,1.20
2018-12-08T20:27:58.969Z,1.20
2018-12-08T20:30:34.890Z,1.40
2018-12-08T20:33:14.926Z,1.80
2018-12-08T20:35:56.627Z,1.60
2018-12-08T20:38:30.274Z,1.27
2018-12-08T20:41:09.661Z,1.23
2018-12-08T20:43:43.459Z,1.40
2018-12-08T20:46:23.209Z,1.20
2018-12-08T20:48:58.261Z,1.30
2018-12-08T20:51:37.665Z,1.23
2018-12-08T20:54:15.889Z,1.40
2018-12-08T20:56:53.981Z,1.40
2018-12-08T20:59:27.868Z,1.20
2018-12-08T21:02:03.440Z,1.40
2018-12-08T21:04:35.565Z,1.37
2018-12-08T21:07:13.813Z,1.17
2018-12-08T21:09:46.945Z,1.30
2018-12-08T21:12:26.456Z,1.30
2018-12-08T21:15:04.969Z,1.13
2018-12-08T21:17:44.246Z,1.30
2018-12-08T21:20:16.525Z,1.30
2018-12-08T21:22:48.661Z,1.37
2018-12-08T21:25:22.092Z,1.30
2018-12-08T21:27:55.326Z,1.17
2018-12-08T21:30:31.063Z,1.27
2018-12-08T21:33:09.189Z,1.37
2018-12-08T21:35:49.335Z,1.10
2018-12-08T21:38:24.640Z,1.40
2018-12-08T21:41:02.888Z,1.20
2018-12-08T21:43:36.910Z,1.40
2018-12-08T21:46:16.626Z,1.20
2018-12-08T21:48:49.716Z,1.00
2018-12-08T21:51:29.485Z,1.20
2018-12-08T21:54:09.679Z,1.13
2018-12-08T21:56:41.473Z,0.90
2018-12-08T21:59:15.727Z,1.07
2018-12-08T22:01:49.131Z,1.13
2018-12-08T22:04:24.657Z,0.97
2018-12-08T22:07:00.251Z,1.10
2018-12-08T22:09:34.133Z,1.20
2018-12-08T22:12:13.774Z,1.00
2018-12-08T22:14:57.106Z,0.97
2018-12-08T22:17:35.381Z,1.10
2018-12-08T22:20:07.105Z,0.90
2018-12-08T22:22:42.975Z,1.10
2018-12-08T22:25:20.956Z,0.90
2018-12-08T22:27:57.238Z,0.90
2018-12-08T22:30:31.134Z,1.00
2018-12-08T22:33:10.964Z,1.00
2018-12-08T22:35:50.381Z,1.00
2018-12-08T22:38:23.571Z,0.77
2018-12-08T22:41:03.308Z,0.90
2018-12-08T22:43:39.489Z,0.70
2018-12-08T22:46:12.559Z,0.60
2018-12-08T22:48:44.366Z,0.67
2018-12-08T22:51:17.617Z,0.80
2018-12-08T22:53:57.276Z,0.70
2018-12-08T22:56:35.419Z,0.60
2018-12-08T22:59:06.730Z,0.80
2018-12-08T23:01:40.602Z,0.60
2018-12-08T23:04:16.190Z,0.87
2018-12-08T23:07:01.624Z,0.70
2018-12-08T23:09:38.813Z,0.80
2018-12-08T23:12:13.721Z,0.80
2018-12-08T23:14:53.388Z,1.00
2018-12-08T23:17:33.009Z,0.90
2018-12-08T23:20:05.747Z,0.90
2018-12-08T23:22:39.158Z,0.80
2018-12-08T23:25:18.850Z,0.90
2018-12-08T23:27:57.076Z,1.10
2018-12-08T23:30:30.858Z,1.10
2018-12-08T23:33:04.025Z,0.80
2018-12-08T23:35:39.548Z,1.00
2018-12-08T23:38:18.938Z,0.90
2018-12-08T23:40:52.718Z,0.93
2018-12-08T23:43:28.165Z,1.00
2018-12-08T23:46:01.996Z,1.10
2018-12-08T23:48:35.432Z,1.10
2018-12-08T23:51:11.153Z,1.00
2018-12-08T23:53:42.093Z,0.87
2018-12-08T23:56:17.881Z,0.90
2018-12-08T23:58:50.847Z,0.90
